Time,TemperatureF,DewpointF,PressureIn,WindDirection,WindDirectionDegrees,WindSpeedMPH,WindSpeedGustMPH,Humidity,HourlyPrecipIn,Conditions,Clouds,dailyrainin,SolarRadiationWatts/m^2,SoftwareType,DateUTC
2013-08-12 00:13:00,83.6,79.0,30.07,SW,224,2.0,7.0,85,0.00,,,0.00,0,weatherlink.com 1.10,2013-08-12 04:13:00,
2013-08-12 00:28:00,83.4,79.0,30.07,SW,228,2.0,7.0,86,0.00,,,0.00,0,weatherlink.com 1.10,2013-08-12 04:28:00,
2013-08-12 00:43:00,83.1,78.0,30.06,SSW,210,6.0,8.0,85,0.00,,,0.00,0,weatherlink.com 1.10,2013-08-12 04:43:00,
2013-08-12 00:58:00,83.3,78.0,30.06,SW,226,7.0,9.0,85,0.00,,,0.00,0,weatherlink.com 1.10,2013-08-12 04:58:00,
2013-08-12 01:13:00,83.4,79.0,30.05,SSW,213,4.0,7.0,85,0.00,,,0.00,0,weatherlink.com 1.10,2013-08-12 05:13:00,
2013-08-12 01:28:00,83.3,78.0,30.05,SW,220,6.0,10.0,84,0.00,,,0.00,0,weatherlink.com 1.10,2013-08-12 05:28:00,
2013-08-12 01:43:00,83.4,78.0,30.05,SSW,201,9.0,9.0,84,0.00,,,0.00,0,weatherlink.com 1.10,2013-08-12 05:43:00,
2013-08-12 01:58:00,83.4,78.0,30.05,SSW,209,7.0,11.0,83,0.00,,,0.00,0,weatherlink.com 1.10,2013-08-12 05:58:00,
2013-08-12 02:13:00,83.4,78.0,30.04,WSW,248,4.0,9.0,84,0.00,,,0.00,0,weatherlink.com 1.10,2013-08-12 06:13:00,
2013-08-12 02:28:00,83.4,79.0,30.04,SW,220,6.0,10.0,85,0.00,,,0.00,0,weatherlink.com 1.10,2013-08-12 06:28:00,
2013-08-12 02:43:00,83.4,79.0,30.03,SW,227,9.0,9.0,85,0.00,,,0.00,0,weatherlink.com 1.10,2013-08-12 06:43:00,
2013-08-12 02:58:00,83.3,78.0,30.03,SW,224,7.0,11.0,85,0.00,,,0.00,0,weatherlink.com 1.10,2013-08-12 06:58:00,
2013-08-12 03:13:00,83.2,78.0,30.03,WSW,243,3.0,11.0,84,0.00,,,0.00,0,weatherlink.com 1.10,2013-08-12 07:13:00,
2013-08-12 03:28:00,83.0,78.0,30.03,SW,234,3.0,8.0,85,0.00,,,0.00,0,weatherlink.com 1.10,2013-08-12 07:28:00,
2013-08-12 03:44:00,82.7,78.0,30.03,West,260,1.0,7.0,85,0.00,,,0.00,0,weatherlink.com 1.10,2013-08-12 07:44:00,
2013-08-12 03:59:00,82.4,78.0,30.04,WSW,249,2.0,8.0,85,0.00,,,0.00,0,weatherlink.com 1.10,2013-08-12 07:59:00,
2013-08-12 04:14:00,82.1,78.0,30.04,WSW,249,2.0,5.0,86,0.00,,,0.00,0,weatherlink.com 1.10,2013-08-12 08:14:00,
2013-08-12 04:29:00,82.0,78.0,30.04,SW,228,2.0,5.0,86,0.00,,,0.00,0,weatherlink.com 1.10,2013-08-12 08:29:00,
2013-08-12 04:44:00,81.7,78.0,30.04,West,270,3.0,5.0,87,0.00,,,0.00,0,weatherlink.com 1.10,2013-08-12 08:44:00,
2013-08-12 04:59:00,81.3,77.0,30.04,WSW,253,1.0,5.0,86,0.00,,,0.00,0,weatherlink.com 1.10,2013-08-12 08:59:00,
2013-08-12 05:14:00,81.1,77.0,30.04,WSW,246,3.0,5.0,86,0.00,,,0.00,0,weatherlink.com 1.10,2013-08-12 09:14:00,
2013-08-12 05:29:00,81.0,77.0,30.04,WSW,239,1.0,3.0,86,0.00,,,0.00,0,weatherlink.com 1.10,2013-08-12 09:29:00,
2013-08-12 05:44:00,80.6,77.0,30.04,SW,219,1.0,5.0,87,0.00,,,0.00,0,weatherlink.com 1.10,2013-08-12 09:44:00,
2013-08-12 05:59:00,80.6,76.0,30.04,SW,218,3.0,6.0,86,0.00,,,0.00,0,weatherlink.com 1.10,2013-08-12 09:59:00,
2013-08-12 06:14:00,80.5,76.0,30.05,WSW,252,4.0,6.0,86,0.00,,,0.00,0,weatherlink.com 1.10,2013-08-12 10:14:00,
2013-08-12 06:29:00,80.3,76.0,30.05,WSW,238,2.0,6.0,85,0.00,,,0.00,0,weatherlink.com 1.10,2013-08-12 10:29:00,
2013-08-12 06:44:00,80.2,75.0,30.05,WSW,245,2.0,5.0,85,0.00,,,0.00,5,weatherlink.com 1.10,2013-08-12 10:44:00,
2013-08-12 06:59:00,80.2,75.0,30.05,SW,232,3.0,5.0,84,0.00,,,0.00,21,weatherlink.com 1.10,2013-08-12 10:59:00,
2013-08-12 07:14:00,80.5,75.0,30.05,SW,234,4.0,8.0,84,0.00,,,0.00,42,weatherlink.com 1.10,2013-08-12 11:14:00,
2013-08-12 07:29:00,80.6,75.0,30.05,SW,228,4.0,8.0,84,0.00,,,0.00,100,weatherlink.com 1.10,2013-08-12 11:29:00,
2013-08-12 07:44:00,81.1,76.0,30.04,West,265,5.0,7.0,83,0.00,,,0.00,125,weatherlink.com 1.10,2013-08-12 11:44:00,
2013-08-12 07:59:00,81.4,76.0,30.05,West,278,6.0,8.0,83,0.00,,,0.00,84,weatherlink.com 1.10,2013-08-12 11:59:00,
2013-08-12 08:14:00,81.2,76.0,30.05,WNW,299,4.0,8.0,83,0.00,,,0.00,149,weatherlink.com 1.10,2013-08-12 12:14:00,
2013-08-12 08:29:00,81.6,76.0,30.05,WNW,284,5.0,7.0,82,0.00,,,0.00,81,weatherlink.com 1.10,2013-08-12 12:29:00,
2013-08-12 08:44:00,82.0,76.0,30.05,WSW,245,5.0,6.0,81,0.00,,,0.00,332,weatherlink.com 1.10,2013-08-12 12:44:00,
2013-08-12 08:59:00,83.3,76.0,30.05,SW,230,5.0,7.0,78,0.00,,,0.00,378,weatherlink.com 1.10,2013-08-12 12:59:00,
2013-08-12 09:14:00,84.0,77.0,30.05,SW,214,4.0,8.0,78,0.00,,,0.00,427,weatherlink.com 1.10,2013-08-12 13:14:00,
2013-08-12 09:29:00,85.1,78.0,30.05,South,189,5.0,7.0,79,0.00,,,0.00,473,weatherlink.com 1.10,2013-08-12 13:29:00,
2013-08-12 09:44:00,84.9,78.0,30.05,South,186,7.0,8.0,79,0.00,,,0.00,524,weatherlink.com 1.10,2013-08-12 13:44:00,
2013-08-12 09:59:00,85.3,78.0,30.05,WSW,244,5.0,9.0,78,0.00,,,0.00,564,weatherlink.com 1.10,2013-08-12 13:59:00,
2013-08-12 10:14:00,86.0,78.0,30.04,WSW,256,4.0,8.0,78,0.00,,,0.00,606,weatherlink.com 1.10,2013-08-12 14:14:00,
2013-08-12 10:29:00,86.2,78.0,30.04,SW,220,6.0,11.0,76,0.00,,,0.00,652,weatherlink.com 1.10,2013-08-12 14:29:00,
2013-08-12 10:44:00,86.6,78.0,30.04,West,260,3.0,9.0,76,0.00,,,0.00,687,weatherlink.com 1.10,2013-08-12 14:44:00,
2013-08-12 10:59:00,87.5,77.0,30.03,WNW,295,6.0,9.0,72,0.00,,,0.00,729,weatherlink.com 1.10,2013-08-12 14:59:00,
2013-08-12 11:14:00,88.0,78.0,30.03,WNW,282,8.0,9.0,71,0.00,,,0.00,763,weatherlink.com 1.10,2013-08-12 15:14:00,
2013-08-12 11:29:00,88.5,77.0,30.03,SSW,211,10.0,10.0,69,0.00,,,0.00,793,weatherlink.com 1.10,2013-08-12 15:29:00,
2013-08-12 11:44:00,87.7,80.0,30.03,WSW,243,1.0,10.0,77,0.00,,,0.00,838,weatherlink.com 1.10,2013-08-12 15:44:00,
2013-08-12 11:59:00,88.0,78.0,30.02,SW,219,7.0,13.0,71,0.00,,,0.00,895,weatherlink.com 1.10,2013-08-12 15:59:00,
2013-08-12 12:14:00,88.9,79.0,30.02,SSW,192,3.0,10.0,73,0.00,,,0.00,907,weatherlink.com 1.10,2013-08-12 16:14:00,
2013-08-12 12:29:00,89.8,77.0,30.01,WSW,246,4.0,11.0,66,0.00,,,0.00,914,weatherlink.com 1.10,2013-08-12 16:29:00,
2013-08-12 12:44:00,90.5,77.0,30.01,SW,216,7.0,10.0,64,0.00,,,0.00,947,weatherlink.com 1.10,2013-08-12 16:44:00,
2013-08-12 13:00:00,88.9,80.0,30.01,SSW,193,7.0,11.0,74,0.00,,,0.00,958,weatherlink.com 1.10,2013-08-12 17:00:00,
2013-08-12 13:15:00,87.6,77.0,30.01,South,190,2.0,13.0,71,0.00,,,0.00,935,weatherlink.com 1.10,2013-08-12 17:15:00,
2013-08-12 13:30:00,90.5,76.0,30.00,SW,226,2.0,9.0,63,0.00,,,0.00,937,weatherlink.com 1.10,2013-08-12 17:30:00,
2013-08-12 13:45:00,88.1,80.0,30.00,South,182,12.0,15.0,77,0.00,,,0.00,946,weatherlink.com 1.10,2013-08-12 17:45:00,
2013-08-12 14:00:00,86.6,80.0,29.99,SSW,193,9.0,15.0,81,0.00,,,0.00,967,weatherlink.com 1.10,2013-08-12 18:00:00,
2013-08-12 14:30:00,87.0,81.0,29.98,South,190,11.0,15.0,83,0.00,,,0.00,926,weatherlink.com 1.10,2013-08-12 18:30:00,
2013-08-12 14:45:00,87.9,80.0,29.98,South,179,6.0,16.0,77,0.00,,,0.00,933,weatherlink.com 1.10,2013-08-12 18:45:00,
2013-08-12 15:00:00,88.1,81.0,29.98,South,176,8.0,13.0,79,0.00,,,0.00,914,weatherlink.com 1.10,2013-08-12 19:00:00,
2013-08-12 15:15:00,87.7,81.0,29.97,South,171,10.0,15.0,81,0.00,,,0.00,849,weatherlink.com 1.10,2013-08-12 19:15:00,
2013-08-12 15:30:00,86.2,81.0,29.97,South,175,11.0,15.0,85,0.00,,,0.00,802,weatherlink.com 1.10,2013-08-12 19:30:00,
2013-08-12 15:45:00,86.6,81.0,29.96,South,191,11.0,17.0,83,0.00,,,0.00,758,weatherlink.com 1.10,2013-08-12 19:45:00,
2013-08-12 16:00:00,87.0,81.0,29.96,South,187,11.0,16.0,83,0.00,,,0.00,721,weatherlink.com 1.10,2013-08-12 20:00:00,
2013-08-12 16:15:00,87.1,81.0,29.95,South,183,11.0,14.0,83,0.00,,,0.00,666,weatherlink.com 1.10,2013-08-12 20:15:00,
2013-08-12 16:30:00,87.4,81.0,29.95,South,182,13.0,16.0,82,0.00,,,0.00,629,weatherlink.com 1.10,2013-08-12 20:30:00,
2013-08-12 16:45:00,86.7,81.0,29.95,South,171,11.0,16.0,83,0.00,,,0.00,156,weatherlink.com 1.10,2013-08-12 20:45:00,
2013-08-12 17:00:00,86.9,81.0,29.95,South,182,11.0,16.0,83,0.00,,,0.00,482,weatherlink.com 1.10,2013-08-12 21:00:00,
2013-08-12 17:15:00,87.2,81.0,29.94,South,189,12.0,15.0,82,0.00,,,0.00,114,weatherlink.com 1.10,2013-08-12 21:15:00,
2013-08-12 17:30:00,87.1,81.0,29.94,South,183,11.0,16.0,82,0.00,,,0.00,434,weatherlink.com 1.10,2013-08-12 21:30:00,
2013-08-12 17:45:00,87.0,81.0,29.94,SSE,167,12.0,16.0,83,0.00,,,0.00,390,weatherlink.com 1.10,2013-08-12 21:45:00,
2013-08-12 18:15:00,86.6,81.0,29.94,South,176,11.0,17.0,84,0.00,,,0.00,276,weatherlink.com 1.10,2013-08-12 22:15:00,
2013-08-12 18:30:00,86.1,81.0,29.94,SSW,194,11.0,16.0,84,0.00,,,0.00,84,weatherlink.com 1.10,2013-08-12 22:30:00,
2013-08-12 18:45:00,85.9,81.0,29.94,South,191,9.0,16.0,85,0.00,,,0.00,65,weatherlink.com 1.10,2013-08-12 22:45:00,
2013-08-12 19:00:00,85.8,81.0,29.95,SSW,195,9.0,14.0,86,0.00,,,0.00,169,weatherlink.com 1.10,2013-08-12 23:00:00,
2013-08-12 19:15:00,85.5,81.0,29.95,South,188,8.0,17.0,86,0.00,,,0.00,69,weatherlink.com 1.10,2013-08-12 23:15:00,
2013-08-12 19:30:00,85.4,81.0,29.95,South,187,8.0,17.0,87,0.00,,,0.00,33,weatherlink.com 1.10,2013-08-12 23:30:00,
2013-08-12 19:45:00,85.2,81.0,29.95,SSW,195,10.0,15.0,87,0.00,,,0.00,11,weatherlink.com 1.10,2013-08-12 23:45:00,
2013-08-12 20:00:00,85.0,81.0,29.95,SSW,197,7.0,13.0,87,0.00,,,0.00,5,weatherlink.com 1.10,2013-08-13 00:00:00,
2013-08-12 20:15:00,85.0,81.0,29.95,South,176,10.0,12.0,88,0.00,,,0.00,0,weatherlink.com 1.10,2013-08-13 00:15:00,
2013-08-12 20:30:00,84.8,81.0,29.95,SSE,167,10.0,15.0,88,0.00,,,0.00,0,weatherlink.com 1.10,2013-08-13 00:30:00,
2013-08-12 20:45:00,84.8,81.0,29.96,SSW,206,6.0,13.0,88,0.00,,,0.00,0,weatherlink.com 1.10,2013-08-13 00:45:00,
2013-08-12 21:00:00,84.6,80.0,29.96,South,178,10.0,14.0,87,0.00,,,0.00,0,weatherlink.com 1.10,2013-08-13 01:00:00,
2013-08-12 21:15:00,84.6,81.0,29.97,SW,219,7.0,13.0,88,0.00,,,0.00,0,weatherlink.com 1.10,2013-08-13 01:15:00,
2013-08-12 21:30:00,84.5,81.0,29.98,South,189,7.0,11.0,88,0.00,,,0.00,0,weatherlink.com 1.10,2013-08-13 01:30:00,
2013-08-12 21:45:00,84.6,81.0,29.98,SSW,197,6.0,9.0,88,0.00,,,0.00,0,weatherlink.com 1.10,2013-08-13 01:45:00,
2013-08-12 22:00:00,84.4,81.0,29.98,South,190,7.0,15.0,89,0.00,,,0.00,0,weatherlink.com 1.10,2013-08-13 02:00:00,
2013-08-12 22:15:00,84.4,81.0,29.98,South,186,10.0,16.0,88,0.00,,,0.00,0,weatherlink.com 1.10,2013-08-13 02:15:00,
2013-08-12 22:30:00,83.8,78.0,29.98,South,189,11.0,14.0,83,0.00,,,0.00,0,weatherlink.com 1.10,2013-08-13 02:30:00,
2013-08-12 22:45:00,83.4,77.0,29.98,SW,220,4.0,12.0,82,0.00,,,0.00,0,weatherlink.com 1.10,2013-08-13 02:45:00,
2013-08-12 23:00:00,82.7,76.0,29.97,South,191,6.0,13.0,81,0.00,,,0.00,0,weatherlink.com 1.10,2013-08-13 03:00:00,
2013-08-12 23:16:00,83.1,78.0,29.97,SW,215,6.0,14.0,83,0.00,,,0.00,0,weatherlink.com 1.10,2013-08-13 03:16:00,
2013-08-12 23:31:00,83.2,78.0,29.96,SW,233,12.0,14.0,83,0.00,,,0.00,0,weatherlink.com 1.10,2013-08-13 03:31:00,
2013-08-12 23:46:00,83.5,78.0,29.96,South,182,10.0,15.0,83,0.00,,,0.00,0,weatherlink.com 1.10,2013-08-13 03:46:00,